Portada
METAR-TAF:

METAR-TAF

Aeroports :

Herat, Afganistan

latitud: 34-13N, longitud: 062-13E, altitud: 964 m

Observació

L'informe es va fer fa 36 minuts, a les 03:55 UTC
Vent 2 kt amb direcció variable
Temperatura 23°C
Humitat 57%
Pressió 1018 hPa
Visibilitat 10 km o més
sense núvols per sota de 1500 mi sense presència de cumulonimbus.

METAR: OAHR 070355Z VRB02KT CAVOK 23/14 Q1018 RMK FEW200 A3007 BLU

Hora: 09:01 (04:31 UTC)

Pronòstic

L'informe es va fer fa 3 hores i 1 minuts, a les 01:30 UTC
Pronòstic vàlid del 07 a les 02 UTC al 07 a les 24 UTC
Vent 3 kt amb direcció variable
Visibilitat 10 km o més
sense núvols per sota de 1500 mi sense presència de cumulonimbus.
Temporalment
l' 07 a les 11 UTC al 07 a les 16 UTC
Vent 8 kt del Nord-Oest

TAF: OAHR 070130Z 0702/0724 VRB03KT CAVOK TEMPO 0711/0716 32008KT

Observacions i pronòstics meteorològics de més de 4000 aeroports (METAR i TAF).

Les estacions disponibles són els punts grocs i vermells al mapa.

Posi el ratolí al punt desitjat per veure el nom de l'estació.

Feu clic per veure les observacions i els pronòstics meteorològics.

Per canviar el mapa: feu clic els botons verds amb una creu de color negre per apropar; al botó verd amb un guió per allunyar la imatge; o en les fletxes verdes per a mapes adjacents.


METAR-TAF: